Time;durP1;ratioP1;P1;durP2;ratioP2;P2;SDS_P1;SDS_P2;PMS_P1;PMS_P2;Temp;Humidity;BMP_temperature;BMP_pressure;BME280_temperature;BME280_humidity;BME280_pressure;Samples;Min_cycle;Max_cycle;Signal;HPM_P1;HPM_P2
2023/10/22 00:00:14;;;;;;;1.30;1.10;;;13.40;99.90;;;;;;5059612;28;20201;-61
2023/10/22 00:02:41;;;;;;;3.20;1.33;;;13.30;99.90;;;;;;5062368;28;20207;-64
2023/10/22 00:05:09;;;;;;;1.97;1.00;;;13.30;99.90;;;;;;5062808;28;20208;-62
2023/10/22 00:07:36;;;;;;;1.30;0.90;;;13.30;99.90;;;;;;5060193;28;20236;-62
2023/10/22 00:10:04;;;;;;;3.47;1.50;;;13.20;99.90;;;;;;5059192;28;20327;-63
2023/10/22 00:12:30;;;;;;;2.67;1.50;;;13.10;99.90;;;;;;5060770;28;20651;-61
2023/10/22 00:14:57;;;;;;;2.33;1.40;;;13.10;99.90;;;;;;5062771;28;20197;-61
2023/10/22 00:17:24;;;;;;;2.47;1.20;;;13.00;99.90;;;;;;5061696;28;20226;-61
2023/10/22 00:19:51;;;;;;;2.40;1.97;;;13.00;99.90;;;;;;5058893;28;20705;-62
2023/10/22 00:22:19;;;;;;;3.10;1.70;;;13.00;99.90;;;;;;5059138;28;20202;-64
2023/10/22 00:24:45;;;;;;;3.60;2.00;;;13.00;99.90;;;;;;5051189;28;20652;-64
2023/10/22 00:27:12;;;;;;;1.73;1.20;;;13.00;99.90;;;;;;5059208;28;20205;-60
2023/10/22 00:29:39;;;;;;;2.63;1.23;;;13.00;99.90;;;;;;5067401;28;20225;-60
2023/10/22 00:32:06;;;;;;;1.43;1.00;;;13.00;99.90;;;;;;5058996;28;20680;-62
2023/10/22 00:34:34;;;;;;;2.20;1.23;;;13.00;99.90;;;;;;5061049;28;20261;-60
2023/10/22 00:37:00;;;;;;;1.80;1.20;;;13.10;99.90;;;;;;5062345;28;20694;-60
2023/10/22 00:39:29;;;;;;;1.73;1.37;;;13.10;99.90;;;;;;5061327;28;20204;-61
2023/10/22 00:41:55;;;;;;;1.90;1.40;;;13.10;99.90;;;;;;5059229;28;20201;-60
2023/10/22 00:44:23;;;;;;;2.83;1.63;;;13.20;99.90;;;;;;5059149;28;20608;-60
2023/10/22 00:46:50;;;;;;;6.43;1.53;;;13.20;99.90;;;;;;5062375;28;20200;-61
2023/10/22 00:49:17;;;;;;;1.33;1.10;;;13.30;99.90;;;;;;5062171;28;20204;-60
2023/10/22 00:51:45;;;;;;;2.87;1.10;;;13.20;99.90;;;;;;5061784;28;20233;-62
2023/10/22 00:54:14;;;;;;;1.40;0.93;;;13.30;99.90;;;;;;5062926;28;20280;-61
2023/10/22 00:56:43;;;;;;;1.60;1.07;;;13.30;99.90;;;;;;5065703;28;20229;-62
2023/10/22 00:59:11;;;;;;;1.93;1.40;;;13.30;99.90;;;;;;5066463;28;20204;-61
2023/10/22 01:01:38;;;;;;;2.27;1.20;;;13.20;99.90;;;;;;5063485;28;20627;-61
2023/10/22 01:04:04;;;;;;;5.60;0.90;;;13.10;99.90;;;;;;5062511;28;20225;-60
2023/10/22 01:06:31;;;;;;;1.53;0.80;;;13.10;99.90;;;;;;5064468;28;20627;-62
2023/10/22 01:09:00;;;;;;;3.07;0.97;;;13.10;99.90;;;;;;5066335;28;20201;-61
2023/10/22 01:11:26;;;;;;;3.60;0.97;;;13.00;99.90;;;;;;5065085;28;20201;-62
2023/10/22 01:13:54;;;;;;;1.83;0.77;;;13.00;99.90;;;;;;5062793;28;20225;-60
2023/10/22 01:16:22;;;;;;;0.80;0.80;;;13.00;99.90;;;;;;5062377;28;20239;-61
2023/10/22 01:18:49;;;;;;;2.93;1.00;;;13.00;99.90;;;;;;5066164;28;20201;-61
2023/10/22 01:21:15;;;;;;;0.83;0.70;;;13.00;99.90;;;;;;5065620;28;20617;-60
2023/10/22 01:23:43;;;;;;;1.60;0.70;;;13.00;99.90;;;;;;5063182;28;20308;-60
2023/10/22 01:26:10;;;;;;;2.63;1.00;;;12.90;99.90;;;;;;5062533;28;20209;-59
2023/10/22 01:28:37;;;;;;;2.80;0.97;;;12.90;99.90;;;;;;5064962;28;20205;-61
2023/10/22 01:31:08;;;;;;;0.73;0.70;;;12.90;99.90;;;;;;5065522;28;20201;-59
2023/10/22 01:33:35;;;;;;;2.23;1.00;;;12.90;99.90;;;;;;5063815;28;20221;-59
2023/10/22 01:36:02;;;;;;;1.67;0.90;;;12.90;99.90;;;;;;5062251;28;20217;-61
2023/10/22 01:38:28;;;;;;;1.23;0.73;;;12.90;99.90;;;;;;5063119;28;20197;-61
2023/10/22 01:40:56;;;;;;;1.47;0.90;;;13.00;99.90;;;;;;5060701;28;20206;-63
2023/10/22 01:43:23;;;;;;;1.20;0.90;;;12.90;99.90;;;;;;5062014;28;20240;-61
2023/10/22 01:45:50;;;;;;;0.83;0.70;;;12.90;99.90;;;;;;5065499;28;20246;-60
2023/10/22 01:48:17;;;;;;;3.03;1.00;;;12.90;99.90;;;;;;5065575;28;20213;-61
2023/10/22 01:50:43;;;;;;;1.53;1.00;;;12.90;99.90;;;;;;5062227;28;20608;-62
2023/10/22 01:53:10;;;;;;;1.43;1.20;;;12.80;99.90;;;;;;5061889;28;20748;-61
2023/10/22 01:55:37;;;;;;;2.10;1.10;;;12.80;99.90;;;;;;5063955;28;20217;-61
2023/10/22 01:58:05;;;;;;;9.33;1.40;;;12.70;99.90;;;;;;5065058;28;20685;-62
2023/10/22 02:00:32;;;;;;;2.10;1.27;;;12.70;99.90;;;;;;5063871;28;20209;-62
2023/10/22 02:02:58;;;;;;;3.03;1.40;;;12.70;99.90;;;;;;5060211;28;20367;-60
2023/10/22 02:05:25;;;;;;;1.93;1.10;;;12.60;99.90;;;;;;5062168;28;20204;-60
2023/10/22 02:07:52;;;;;;;5.03;1.90;;;12.60;99.90;;;;;;5064951;28;20208;-61
2023/10/22 02:10:20;;;;;;;2.60;1.27;;;12.50;99.90;;;;;;5064796;28;20223;-62
2023/10/22 02:12:46;;;;;;;2.90;1.03;;;12.50;99.90;;;;;;5061449;28;20229;-61
2023/10/22 02:15:15;;;;;;;1.20;0.80;;;12.50;99.90;;;;;;5061955;28;20212;-61
2023/10/22 02:17:41;;;;;;;1.80;1.00;;;12.40;99.90;;;;;;5064209;28;20247;-60
2023/10/22 02:20:09;;;;;;;1.97;1.20;;;12.40;99.90;;;;;;5064799;28;20205;-60
2023/10/22 02:22:37;;;;;;;1.13;0.87;;;12.40;99.90;;;;;;5062708;28;20215;-60
2023/10/22 02:25:04;;;;;;;4.30;1.27;;;12.40;99.90;;;;;;5061027;28;20205;-62
2023/10/22 02:27:31;;;;;;;1.93;1.07;;;12.30;99.90;;;;;;5062685;28;20654;-62
2023/10/22 02:29:58;;;;;;;3.77;1.07;;;12.30;99.90;;;;;;5064647;28;20201;-63
2023/10/22 02:32:26;;;;;;;1.90;1.13;;;12.20;99.90;;;;;;5064206;28;20209;-61
2023/10/22 02:34:53;;;;;;;3.73;1.10;;;12.20;99.90;;;;;;5061166;28;20198;-61
2023/10/22 02:37:20;;;;;;;2.03;1.10;;;12.20;99.90;;;;;;5060936;28;20245;-60
2023/10/22 02:39:47;;;;;;;2.10;1.07;;;12.10;99.90;;;;;;5064005;28;20205;-60
2023/10/22 02:42:14;;;;;;;1.77;1.30;;;12.10;99.90;;;;;;5064388;28;20675;-61
2023/10/22 02:44:41;;;;;;;2.67;1.10;;;12.10;99.90;;;;;;5061937;28;20252;-61
2023/10/22 02:47:07;;;;;;;2.53;1.40;;;12.00;99.90;;;;;;5060994;28;20205;-60
2023/10/22 02:49:35;;;;;;;2.83;1.60;;;12.10;99.90;;;;;;5062046;28;20201;-60
2023/10/22 02:52:04;;;;;;;1.00;0.90;;;12.00;99.90;;;;;;5064096;28;20225;-61
2023/10/22 02:54:30;;;;;;;1.60;1.13;;;12.00;99.90;;;;;;5063211;28;20312;-61
2023/10/22 02:56:57;;;;;;;1.20;1.07;;;12.10;99.90;;;;;;5060720;28;20703;-61
2023/10/22 02:59:24;;;;;;;1.37;0.90;;;12.00;99.90;;;;;;5061474;28;20224;-63
2023/10/22 03:01:50;;;;;;;3.50;1.10;;;12.00;99.90;;;;;;5064189;28;20663;-60
2023/10/22 03:04:17;;;;;;;2.03;1.27;;;12.00;99.90;;;;;;5063947;28;20733;-61
2023/10/22 03:06:45;;;;;;;1.50;1.00;;;12.00;99.90;;;;;;5061119;28;20209;-59
2023/10/22 03:09:13;;;;;;;3.00;1.07;;;11.90;99.90;;;;;;5060522;28;20213;-61
2023/10/22 03:11:39;;;;;;;1.87;1.00;;;12.00;99.90;;;;;;5062764;28;20256;-60
2023/10/22 03:14:06;;;;;;;4.30;1.07;;;12.00;99.90;;;;;;5063748;28;20221;-60
2023/10/22 03:16:33;;;;;;;3.70;0.90;;;12.00;99.90;;;;;;5062755;28;20278;-62
2023/10/22 03:19:00;;;;;;;3.17;1.00;;;12.00;99.90;;;;;;5060910;28;20201;-60
2023/10/22 03:21:28;;;;;;;1.30;0.80;;;12.00;99.90;;;;;;5060666;28;20206;-60
2023/10/22 03:23:56;;;;;;;2.30;1.00;;;12.00;99.90;;;;;;5064230;28;20278;-61
2023/10/22 03:26:23;;;;;;;2.80;1.07;;;12.00;99.90;;;;;;5063627;28;20663;-60
2023/10/22 03:28:51;;;;;;;1.63;0.83;;;12.00;99.90;;;;;;5063951;28;20200;-62
2023/10/22 03:31:19;;;;;;;2.27;1.20;;;12.10;99.90;;;;;;5063696;28;20201;-60
2023/10/22 03:33:46;;;;;;;3.93;0.90;;;12.10;99.90;;;;;;5061243;28;20249;-61
2023/10/22 03:36:15;;;;;;;2.17;1.03;;;12.20;99.90;;;;;;5060825;28;20265;-63
2023/10/22 03:38:42;;;;;;;2.50;1.20;;;12.20;99.90;;;;;;5062907;28;20301;-61
2023/10/22 03:41:10;;;;;;;1.40;0.90;;;12.20;99.90;;;;;;5063970;28;20204;-60
2023/10/22 03:43:36;;;;;;;2.07;0.87;;;12.30;99.90;;;;;;5061909;28;20221;-61
2023/10/22 03:46:03;;;;;;;3.23;1.07;;;12.30;99.90;;;;;;5060081;28;20216;-61
2023/10/22 03:48:32;;;;;;;1.77;0.80;;;12.30;99.90;;;;;;5060814;28;20624;-60
2023/10/22 03:50:59;;;;;;;1.83;0.93;;;12.40;99.90;;;;;;5063565;28;20197;-60
2023/10/22 03:53:26;;;;;;;1.17;0.80;;;12.30;99.90;;;;;;5062953;28;20311;-60
2023/10/22 03:55:53;;;;;;;2.30;0.90;;;12.40;99.90;;;;;;5060870;28;20296;-60
2023/10/22 03:58:21;;;;;;;2.20;1.10;;;12.40;99.90;;;;;;5067013;28;20649;-61
2023/10/22 04:00:50;;;;;;;0.80;0.70;;;12.30;99.90;;;;;;5059352;28;20205;-61
2023/10/22 04:03:16;;;;;;;3.20;1.00;;;12.30;99.90;;;;;;5083511;22;20287;-62
2023/10/22 04:05:43;;;;;;;4.50;1.17;;;12.30;99.90;;;;;;5050717;28;20685;-62
2023/10/22 04:08:10;;;;;;;1.63;1.10;;;12.30;99.90;;;;;;5050704;28;20273;-62
2023/10/22 04:10:37;;;;;;;1.57;1.00;;;12.30;99.90;;;;;;5050578;28;20213;-63
2023/10/22 04:13:04;;;;;;;3.47;1.57;;;12.30;99.90;;;;;;5050630;28;20290;-63
2023/10/22 04:15:36;;;;;;;2.27;1.47;;;12.20;99.90;;;;;;5041558;28;20237;-62
2023/10/22 04:18:03;;;;;;;4.23;1.30;;;12.30;99.90;;;;;;5039270;28;20218;-62
2023/10/22 04:20:33;;;;;;;1.80;1.00;;;12.30;99.90;;;;;;5039259;28;20214;-63
2023/10/22 04:22:59;;;;;;;3.73;1.60;;;12.20;99.90;;;;;;5042168;28;20718;-61
2023/10/22 04:25:27;;;;;;;2.03;1.20;;;12.20;99.90;;;;;;5041479;28;20489;-61
2023/10/22 04:27:54;;;;;;;3.33;2.60;;;12.20;99.90;;;;;;5038654;28;20265;-62
2023/10/22 04:30:21;;;;;;;2.60;1.57;;;12.20;99.90;;;;;;5038547;28;20206;-64
2023/10/22 04:32:50;;;;;;;2.20;1.30;;;12.20;99.90;;;;;;5041570;28;20205;-62
2023/10/22 04:35:18;;;;;;;3.80;1.83;;;12.20;99.90;;;;;;5042294;28;20205;-62
2023/10/22 04:37:45;;;;;;;3.60;1.53;;;12.20;99.90;;;;;;5039335;28;20279;-61
2023/10/22 04:40:12;;;;;;;2.40;1.63;;;12.30;99.90;;;;;;5038527;28;20281;-61
2023/10/22 04:42:38;;;;;;;4.30;1.70;;;12.20;99.90;;;;;;5038612;28;20689;-61
2023/10/22 04:45:06;;;;;;;3.00;1.73;;;12.20;99.90;;;;;;5038903;28;20638;-65
2023/10/22 04:47:32;;;;;;;2.83;1.60;;;12.20;99.90;;;;;;5039535;28;20205;-61
2023/10/22 04:50:01;;;;;;;5.77;3.43;;;12.20;99.90;;;;;;5041822;28;20326;-62
2023/10/22 04:52:31;;;;;;;4.53;1.87;;;12.30;99.90;;;;;;5041839;28;20202;-62
2023/10/22 04:54:58;;;;;;;2.63;1.63;;;12.30;99.90;;;;;;5038571;28;20283;-62
2023/10/22 04:57:26;;;;;;;2.00;1.30;;;12.30;99.90;;;;;;5038196;28;20273;-61
2023/10/22 04:59:53;;;;;;;3.20;1.50;;;12.30;99.90;;;;;;5030549;28;20229;-62
2023/10/22 05:02:20;;;;;;;2.37;1.47;;;12.40;99.90;;;;;;5038386;28;20610;-63
2023/10/22 05:04:47;;;;;;;2.43;1.23;;;12.40;99.90;;;;;;5040976;28;20598;-62
2023/10/22 05:07:15;;;;;;;5.50;1.87;;;12.40;99.90;;;;;;5041954;28;20228;-62
2023/10/22 05:09:42;;;;;;;3.47;2.07;;;12.40;99.90;;;;;;5039546;28;20218;-62
2023/10/22 05:12:09;;;;;;;3.80;1.60;;;12.40;99.90;;;;;;5038552;28;20229;-63
2023/10/22 05:14:36;;;;;;;4.03;2.10;;;12.30;99.90;;;;;;5039331;28;20261;-63
2023/10/22 05:17:04;;;;;;;3.30;1.50;;;12.30;99.90;;;;;;5041715;28;20304;-65
2023/10/22 05:19:30;;;;;;;4.00;1.33;;;12.30;99.90;;;;;;5041036;28;20580;-63
2023/10/22 05:21:57;;;;;;;2.90;1.40;;;12.20;99.90;;;;;;5038329;28;20203;-62
2023/10/22 05:24:25;;;;;;;4.57;2.10;;;12.30;99.90;;;;;;5038240;28;20226;-62
2023/10/22 05:26:52;;;;;;;3.77;1.70;;;12.40;99.90;;;;;;5041594;28;20256;-62
2023/10/22 05:29:19;;;;;;;3.70;1.43;;;12.30;99.90;;;;;;5041580;28;20667;-63
2023/10/22 05:31:46;;;;;;;3.73;1.63;;;12.30;99.90;;;;;;5039191;28;20212;-63
2023/10/22 05:34:12;;;;;;;3.57;1.80;;;12.30;99.90;;;;;;5038250;28;20225;-62
2023/10/22 05:36:39;;;;;;;4.13;1.93;;;12.30;99.90;;;;;;5040161;28;20799;-63
2023/10/22 05:39:06;;;;;;;3.83;1.93;;;12.30;99.90;;;;;;5045399;28;20615;-62
2023/10/22 05:41:34;;;;;;;5.00;2.23;;;12.20;99.90;;;;;;5044553;28;20232;-62
2023/10/22 05:44:03;;;;;;;3.37;1.43;;;12.20;99.90;;;;;;5041880;28;20226;-62
2023/10/22 05:46:31;;;;;;;4.70;2.00;;;12.20;99.90;;;;;;5041860;28;20206;-62
2023/10/22 05:48:58;;;;;;;3.80;1.60;;;12.20;99.90;;;;;;5045217;28;20213;-63
2023/10/22 05:51:25;;;;;;;3.70;1.97;;;12.30;99.90;;;;;;5044755;28;20232;-62
2023/10/22 05:53:52;;;;;;;2.73;1.40;;;12.30;99.90;;;;;;5041805;28;20222;-63
2023/10/22 05:56:20;;;;;;;4.13;2.03;;;12.30;99.90;;;;;;5041897;28;20210;-63
2023/10/22 05:58:48;;;;;;;3.03;1.37;;;12.30;99.90;;;;;;5044121;28;20226;-64
2023/10/22 06:01:15;;;;;;;4.47;1.43;;;12.30;99.90;;;;;;5044897;28;20206;-64
2023/10/22 06:03:42;;;;;;;2.97;1.20;;;12.30;99.90;;;;;;5042872;28;20238;-63
2023/10/22 06:06:10;;;;;;;3.03;1.50;;;12.30;99.90;;;;;;5041444;28;20205;-63
2023/10/22 06:08:37;;;;;;;4.77;1.87;;;12.40;99.90;;;;;;5042550;28;20202;-63
2023/10/22 06:11:04;;;;;;;3.00;1.40;;;12.40;99.90;;;;;;5044657;28;20213;-64
2023/10/22 06:13:31;;;;;;;5.30;1.83;;;12.40;99.90;;;;;;5044396;28;20230;-63
2023/10/22 06:15:59;;;;;;;3.53;1.80;;;12.40;99.90;;;;;;5041035;28;20205;-62
2023/10/22 06:18:26;;;;;;;5.50;1.70;;;12.40;99.90;;;;;;5040846;28;20225;-62
2023/10/22 06:20:53;;;;;;;4.27;2.40;;;12.50;99.90;;;;;;5044190;28;20252;-61
2023/10/22 06:23:21;;;;;;;4.87;1.87;;;12.50;99.90;;;;;;5044336;28;20221;-60
2023/10/22 06:25:48;;;;;;;5.50;1.60;;;12.50;99.90;;;;;;5041807;28;20206;-61
2023/10/22 06:28:15;;;;;;;6.30;2.40;;;12.50;99.90;;;;;;5040656;28;20202;-60
2023/10/22 06:30:42;;;;;;;3.20;1.33;;;12.60;99.90;;;;;;5042237;28;20206;-61
2023/10/22 06:33:10;;;;;;;5.83;1.13;;;12.70;99.90;;;;;;5044070;28;20225;-60
2023/10/22 06:35:37;;;;;;;4.47;1.80;;;12.80;99.90;;;;;;5043413;28;20495;-60
2023/10/22 06:38:03;;;;;;;4.30;1.50;;;12.90;99.90;;;;;;5040532;28;20605;-60
2023/10/22 06:40:30;;;;;;;3.90;1.40;;;13.30;99.90;;;;;;5040433;28;20660;-61
2023/10/22 06:42:57;;;;;;;3.50;1.60;;;13.90;99.90;;;;;;5043948;28;20204;-59
2023/10/22 06:45:24;;;;;;;3.55;1.60;;;14.70;99.90;;;;;;5044048;28;20667;-62
2023/10/22 06:47:51;;;;;;;6.82;3.60;;;15.60;99.90;;;;;;5040726;28;20596;-61
2023/10/22 06:50:18;;;;;;;4.60;2.72;;;16.50;99.90;;;;;;5040203;28;20241;-61
2023/10/22 06:52:45;;;;;;;3.13;1.15;;;17.30;99.90;;;;;;5042230;28;20210;-61
2023/10/22 06:55:12;;;;;;;4.15;1.50;;;18.00;99.90;;;;;;5043855;28;20212;-62
2023/10/22 06:57:39;;;;;;;2.58;1.30;;;18.50;99.90;;;;;;5042305;28;20217;-61
2023/10/22 07:00:09;;;;;;;4.43;2.13;;;19.00;99.90;;;;;;5040409;28;20252;-62
2023/10/22 07:02:36;;;;;;;3.85;1.83;;;19.30;99.90;;;;;;5041084;28;20264;-62
2023/10/22 07:05:04;;;;;;;5.60;1.70;;;19.10;99.90;;;;;;5043668;28;20233;-61
2023/10/22 07:07:32;;;;;;;6.13;2.05;;;18.50;99.90;;;;;;5043957;28;20231;-61
2023/10/22 07:09:58;;;;;;;2.80;1.60;;;17.80;99.90;;;;;;5032504;28;20206;-61
2023/10/22 07:12:26;;;;;;;3.90;1.35;;;17.20;99.90;;;;;;5040202;28;20337;-60
2023/10/22 07:14:53;;;;;;;1.67;0.90;;;16.60;99.90;;;;;;5043076;28;20271;-60
2023/10/22 07:17:20;;;;;;;4.53;1.27;;;16.20;99.90;;;;;;5043439;28;20255;-60
2023/10/22 07:19:47;;;;;;;3.55;1.25;;;15.90;99.90;;;;;;5039194;28;20265;-61
2023/10/22 07:22:13;;;;;;;3.40;0.77;;;15.50;99.90;;;;;;5042744;28;20209;-63
2023/10/22 07:24:41;;;;;;;7.50;5.78;;;15.20;99.90;;;;;;5041550;28;20236;-60
2023/10/22 07:27:08;;;;;;;5.60;2.07;;;15.00;99.90;;;;;;5025473;28;20206;-60
2023/10/22 07:29:35;;;;;;;4.43;2.67;;;14.80;99.90;;;;;;5030562;28;20210;-61
2023/10/22 07:32:01;;;;;;;2.73;1.20;;;14.80;99.90;;;;;;5031248;28;20207;-61
2023/10/22 07:34:30;;;;;;;2.17;0.97;;;14.60;99.90;;;;;;5031054;28;20278;-61
2023/10/22 07:36:57;;;;;;;2.40;0.90;;;14.60;99.90;;;;;;5030854;28;20210;-62
2023/10/22 07:39:23;;;;;;;3.07;1.33;;;14.60;99.90;;;;;;5030983;28;20237;-60
2023/10/22 07:41:51;;;;;;;2.03;0.90;;;14.60;99.90;;;;;;5030204;28;20586;-60
2023/10/22 07:44:18;;;;;;;6.60;1.43;;;14.50;99.90;;;;;;5030948;28;20244;-60
2023/10/22 07:46:45;;;;;;;3.07;0.90;;;14.50;99.90;;;;;;5030735;28;20213;-62
2023/10/22 07:49:12;;;;;;;4.07;1.10;;;14.50;99.90;;;;;;5031120;28;20206;-61
2023/10/22 07:51:38;;;;;;;3.20;1.20;;;14.50;99.90;;;;;;5030589;28;20214;-63
2023/10/22 07:54:05;;;;;;;3.83;1.23;;;14.50;99.90;;;;;;5030497;28;20600;-62
2023/10/22 07:56:34;;;;;;;4.43;1.40;;;14.60;99.90;;;;;;5030647;28;20688;-57
2023/10/22 07:59:02;;;;;;;3.53;1.33;;;14.60;99.90;;;;;;5023103;28;20602;-63
2023/10/22 08:01:28;;;;;;;3.53;1.03;;;14.70;99.90;;;;;;5030635;28;20209;-60
2023/10/22 08:03:55;;;;;;;2.77;1.00;;;14.70;99.90;;;;;;5029895;28;20234;-61
2023/10/22 08:06:22;;;;;;;2.80;1.10;;;14.80;99.90;;;;;;5029164;28;20206;-61
2023/10/22 08:08:48;;;;;;;3.53;1.40;;;14.80;99.90;;;;;;5030357;28;20210;-62
2023/10/22 08:11:15;;;;;;;4.47;1.50;;;14.80;99.90;;;;;;5030724;28;20221;-63
2023/10/22 08:13:42;;;;;;;5.67;1.73;;;14.80;99.90;;;;;;5028748;28;20238;-62
2023/10/22 08:16:12;;;;;;;5.10;1.93;;;14.90;99.90;;;;;;5029744;28;20252;-62
2023/10/22 08:18:38;;;;;;;2.53;1.07;;;14.90;99.90;;;;;;5029662;28;20651;-63
2023/10/22 08:21:06;;;;;;;3.07;0.97;;;15.00;99.90;;;;;;5030322;28;20215;-63
2023/10/22 08:23:33;;;;;;;3.17;0.87;;;15.10;99.90;;;;;;5030558;28;20321;-64
2023/10/22 08:26:00;;;;;;;8.97;2.43;;;14.90;99.90;;;;;;5030610;28;20243;-63
2023/10/22 08:28:26;;;;;;;3.27;1.30;;;15.10;99.90;;;;;;5030544;28;20257;-64
2023/10/22 08:30:53;;;;;;;2.40;1.47;;;15.20;99.90;;;;;;5029793;28;22613;-62
2023/10/22 08:33:21;;;;;;;2.70;0.97;;;15.30;99.90;;;;;;5030243;28;20222;-63
2023/10/22 08:35:48;;;;;;;2.23;1.00;;;15.40;99.90;;;;;;5030410;28;20210;-63
2023/10/22 08:38:15;;;;;;;3.07;1.17;;;15.40;99.90;;;;;;5029978;28;20271;-63
2023/10/22 08:40:43;;;;;;;6.53;1.37;;;15.50;99.90;;;;;;5030150;28;20352;-63
2023/10/22 08:43:16;;;;;;;2.83;1.13;;;15.60;99.90;;;;;;5029846;28;20321;-63
2023/10/22 08:45:45;;;;;;;3.75;1.38;;;15.70;99.90;;;;;;5030186;28;20298;-64
2023/10/22 08:48:14;;;;;;;3.25;1.02;;;15.70;99.90;;;;;;5030222;28;20207;-63
2023/10/22 08:50:44;;;;;;;3.73;1.70;;;15.80;99.90;;;;;;5029786;28;20324;-64
2023/10/22 08:53:12;;;;;;;2.50;1.10;;;15.90;99.90;;;;;;5030182;28;20712;-62
2023/10/22 08:55:43;;;;;;;3.97;1.37;;;16.00;99.90;;;;;;5028571;28;20309;-62
2023/10/22 08:58:10;;;;;;;3.13;1.37;;;16.10;99.90;;;;;;5027555;28;20645;-62
2023/10/22 09:00:39;;;;;;;7.47;3.88;;;16.20;99.90;;;;;;5030021;28;20210;-61
2023/10/22 09:03:06;;;;;;;3.47;1.50;;;16.10;99.90;;;;;;5030117;28;20211;-63
2023/10/22 09:05:32;;;;;;;4.35;1.40;;;16.20;99.90;;;;;;5029943;28;20218;-63
2023/10/22 09:08:01;;;;;;;2.10;1.25;;;16.20;99.90;;;;;;5022400;28;20202;-65
2023/10/22 09:10:30;;;;;;;2.15;1.05;;;16.20;99.90;;;;;;5029782;28;20668;-63
2023/10/22 09:13:15;;;;;;;3.17;1.08;;;16.20;99.90;;;;;;5032258;28;20208;-64
2023/10/22 09:15:44;;;;;;;2.72;1.33;;;16.30;99.90;;;;;;5033220;28;20218;-64
2023/10/22 09:18:11;;;;;;;5.43;1.30;;;16.40;99.90;;;;;;5033670;28;20234;-63
2023/10/22 09:20:39;;;;;;;3.30;1.13;;;16.50;99.90;;;;;;5033750;28;20221;-64
2023/10/22 09:23:15;;;;;;;4.25;1.95;;;16.50;99.90;;;;;;5033398;28;20238;-62
2023/10/22 09:25:41;;;;;;;8.23;5.05;;;16.50;99.90;;;;;;5033429;28;20206;-63
2023/10/22 09:28:17;;;;;;;10.65;6.18;;;16.50;99.90;;;;;;5033006;28;20248;-63
2023/10/22 09:30:44;;;;;;;3.55;1.10;;;16.60;99.90;;;;;;5032965;28;20304;-64
2023/10/22 09:33:11;;;;;;;4.15;1.75;;;16.60;99.90;;;;;;5033665;28;20226;-63
2023/10/22 09:35:38;;;;;;;4.47;1.42;;;16.60;99.90;;;;;;5033736;28;20665;-63
2023/10/22 09:38:05;;;;;;;2.75;1.20;;;16.70;99.90;;;;;;5033504;28;20218;-62
2023/10/22 09:40:34;;;;;;;3.38;1.00;;;16.80;99.90;;;;;;5033136;28;20221;-62
2023/10/22 09:43:04;;;;;;;3.88;1.60;;;16.90;99.90;;;;;;5032810;28;20578;-61
2023/10/22 09:45:31;;;;;;;4.70;1.00;;;17.00;99.90;;;;;;5033338;28;20248;-63
2023/10/22 09:48:06;;;;;;;5.82;2.08;;;17.10;99.90;;;;;;5033244;28;20234;-61
2023/10/22 09:50:37;;;;;;;3.55;1.38;;;17.20;99.90;;;;;;5033437;28;20216;-61
2023/10/22 09:53:09;;;;;;;2.88;1.00;;;17.30;99.90;;;;;;5025393;28;20211;-62
2023/10/22 09:55:40;;;;;;;3.38;1.48;;;17.40;99.90;;;;;;5041429;28;20222;-58
2023/10/22 09:58:09;;;;;;;6.28;1.40;;;17.50;99.90;;;;;;5033167;28;20234;-59
2023/10/22 10:00:36;;;;;;;6.65;2.00;;;17.50;99.90;;;;;;5032887;28;20237;-60
2023/10/22 10:03:04;;;;;;;4.47;1.10;;;17.60;99.90;;;;;;5024852;28;20213;-60
2023/10/22 10:05:34;;;;;;;3.45;1.60;;;17.70;99.90;;;;;;5033483;28;20222;-60
2023/10/22 10:08:01;;;;;;;5.80;1.45;;;17.80;99.90;;;;;;5032581;28;20281;-61
2023/10/22 10:10:28;;;;;;;4.25;0.93;;;17.80;99.90;;;;;;5032813;28;20217;-59
2023/10/22 10:12:56;;;;;;;4.70;1.10;;;17.90;99.90;;;;;;5032779;28;20214;-60
2023/10/22 10:15:31;;;;;;;3.80;1.00;;;18.00;99.90;;;;;;5032700;28;20615;-61
2023/10/22 10:18:00;;;;;;;2.92;1.40;;;18.10;99.90;;;;;;5032547;28;20297;-60
2023/10/22 10:20:30;;;;;;;4.40;1.00;;;18.30;99.90;;;;;;5032167;28;20616;-62
2023/10/22 10:23:04;;;;;;;3.75;1.10;;;18.30;99.90;;;;;;5031735;28;20625;-63
2023/10/22 10:25:32;;;;;;;3.30;1.15;;;18.50;99.90;;;;;;5032814;28;20224;-63
2023/10/22 10:28:05;;;;;;;5.78;1.17;;;18.60;99.90;;;;;;5032301;28;20210;-62
2023/10/22 10:30:32;;;;;;;23.95;18.25;;;18.70;99.90;;;;;;5031389;28;20726;-62
2023/10/22 10:32:59;;;;;;;6.53;1.55;;;18.90;99.90;;;;;;5029312;28;20221;-61
2023/10/22 10:35:27;;;;;;;3.67;1.15;;;19.20;99.90;;;;;;5032394;28;20206;-63
2023/10/22 10:38:20;;;;;;;6.53;1.42;;;19.30;99.90;;;;;;5032373;28;20221;-61
2023/10/22 10:40:48;;;;;;;3.42;1.23;;;19.30;99.90;;;;;;5031823;28;20224;-63
2023/10/22 10:43:16;;;;;;;2.92;1.33;;;19.20;99.90;;;;;;5031830;28;20226;-64
2023/10/22 10:46:20;;;;;;;2.90;1.25;;;19.40;99.90;;;;;;5032122;28;20221;-62
2023/10/22 10:48:48;;;;;;;4.40;1.15;;;19.60;99.90;;;;;;5032078;28;20679;-62
2023/10/22 10:51:17;;;;;;;4.30;1.30;;;19.60;99.90;;;;;;5031798;28;20575;-63
2023/10/22 10:54:20;;;;;;;4.53;1.20;;;19.70;99.90;;;;;;5031677;28;20238;-64
2023/10/22 10:56:56;;;;;;;4.82;1.67;;;19.80;99.90;;;;;;5031092;28;20267;-62
2023/10/22 10:59:32;;;;;;;6.13;2.30;;;20.10;99.90;;;;;;5024491;28;20603;-62
2023/10/22 11:02:04;;;;;;;5.22;1.50;;;20.30;99.90;;;;;;5030142;28;20218;-63
2023/10/22 11:04:31;;;;;;;4.90;1.30;;;20.40;99.90;;;;;;5031965;28;20245;-65
2023/10/22 11:06:58;;;;;;;3.85;1.55;;;20.40;99.90;;;;;;5032025;28;20248;-63
2023/10/22 11:09:25;;;;;;;2.17;1.10;;;20.40;99.90;;;;;;5031735;28;20206;-62
2023/10/22 11:11:56;;;;;;;1.85;1.02;;;20.40;99.90;;;;;;5023637;28;20632;-62
2023/10/22 11:14:23;;;;;;;4.93;1.00;;;20.50;99.90;;;;;;5029864;28;20230;-63
2023/10/22 11:16:56;;;;;;;3.85;1.05;;;20.70;99.90;;;;;;5031218;28;20847;-63
2023/10/22 11:19:24;;;;;;;3.40;1.00;;;21.10;99.90;;;;;;5031695;28;20229;-64
2023/10/22 11:21:54;;;;;;;2.60;1.00;;;21.60;99.90;;;;;;5031582;28;20214;-64
2023/10/22 11:24:22;;;;;;;4.95;1.10;;;21.90;99.90;;;;;;5031710;28;20365;-63
2023/10/22 11:26:49;;;;;;;2.33;1.15;;;22.00;99.90;;;;;;5029269;28;20272;-63
2023/10/22 11:29:16;;;;;;;3.88;1.55;;;21.80;99.90;;;;;;5031510;28;20210;-62
2023/10/22 11:31:52;;;;;;;5.72;1.33;;;21.60;99.90;;;;;;5030274;28;20210;-63
2023/10/22 11:34:20;;;;;;;3.38;1.20;;;21.50;99.90;;;;;;5030381;28;20256;-63
2023/10/22 11:36:47;;;;;;;4.00;1.48;;;21.60;99.90;;;;;;5031275;28;20248;-61
2023/10/22 11:39:18;;;;;;;3.58;1.13;;;21.80;99.90;;;;;;5031145;28;20309;-62
2023/10/22 11:41:46;;;;;;;5.78;0.90;;;22.20;99.90;;;;;;5031359;28;20238;-61
2023/10/22 11:44:31;;;;;;;3.15;1.23;;;22.70;99.30;;;;;;5031423;28;20253;-63
2023/10/22 11:46:59;;;;;;;5.28;2.15;;;23.10;98.40;;;;;;5031298;28;20242;-63
2023/10/22 11:49:27;;;;;;;4.20;1.70;;;23.20;97.20;;;;;;5039448;28;20233;-63
2023/10/22 11:51:54;;;;;;;3.28;1.58;;;23.30;96.40;;;;;;5030811;28;20207;-61
2023/10/22 11:54:35;;;;;;;3.70;1.33;;;23.50;95.90;;;;;;5031051;28;20233;-64
2023/10/22 11:57:02;;;;;;;3.47;1.30;;;23.60;95.90;;;;;;5039643;28;20235;-62
2023/10/22 11:59:29;;;;;;;4.20;0.93;;;23.90;95.10;;;;;;5032391;28;20600;-63
2023/10/22 12:01:56;;;;;;;3.17;1.10;;;23.90;94.10;;;;;;5042773;28;20729;-62
2023/10/22 12:04:23;;;;;;;4.53;1.30;;;23.90;93.40;;;;;;5043100;28;20244;-62
2023/10/22 12:06:52;;;;;;;4.50;1.27;;;23.80;92.60;;;;;;5041651;28;20216;-62
2023/10/22 12:09:18;;;;;;;10.20;7.38;;;23.70;92.30;;;;;;5038975;28;20779;-61
2023/10/22 12:11:45;;;;;;;4.50;1.55;;;23.60;92.70;;;;;;5039967;28;20248;-63
2023/10/22 12:14:12;;;;;;;4.05;2.20;;;23.50;92.50;;;;;;5042308;28;20221;-62
2023/10/22 12:16:38;;;;;;;5.28;1.42;;;23.20;92.20;;;;;;5042619;28;20284;-62
2023/10/22 12:19:05;;;;;;;3.22;1.10;;;22.90;92.20;;;;;;5030767;28;20245;-62
2023/10/22 12:21:32;;;;;;;5.55;1.77;;;22.50;92.50;;;;;;5038811;28;20236;-61
2023/10/22 12:24:00;;;;;;;3.35;1.33;;;22.30;92.90;;;;;;5039203;28;20233;-63
2023/10/22 12:26:27;;;;;;;5.45;1.50;;;22.00;93.30;;;;;;5038932;28;20213;-61
2023/10/22 12:28:54;;;;;;;2.60;1.15;;;21.80;93.00;;;;;;5040932;28;20221;-61
2023/10/22 12:31:21;;;;;;;2.42;1.20;;;21.50;93.30;;;;;;5042155;28;20205;-63
2023/10/22 12:33:47;;;;;;;7.68;4.78;;;21.30;93.70;;;;;;5041414;28;20226;-63
2023/10/22 12:36:14;;;;;;;3.13;1.20;;;21.30;93.80;;;;;;5039159;28;20202;-63
2023/10/22 12:38:41;;;;;;;4.53;1.20;;;21.20;94.10;;;;;;5038996;28;20671;-59
2023/10/22 12:41:09;;;;;;;3.50;1.38;;;21.30;93.90;;;;;;5042403;28;20256;-61
2023/10/22 12:43:36;;;;;;;2.92;0.98;;;21.30;93.40;;;;;;5042408;28;20614;-62
2023/10/22 12:46:03;;;;;;;3.78;1.20;;;21.30;93.50;;;;;;5039391;28;20206;-62
2023/10/22 12:48:30;;;;;;;2.25;1.80;;;21.20;93.30;;;;;;5043110;28;20291;-63